Etusivu
METAR-TAF:

METAR-TAF

Lentoasemat :

Sansibar, Tansania

Leveyspiiri: 06-13S, Pituuspiiri: 039-13E, korkeus merenpinnasta: 15 m

Tämänhetkinen sää

Tämä raportti tehtiin 3 tuntia ja 18 minuuttia sitten, kello 13.00 UTC
Tuuli 15 kn etelästä/kaakosta
Lämpötila 30°C
Kosteus 52%
Ilmanpaine 1015 hPa
Näkyvyys 10 km tai enemmän
Muutamia pilviä 2400 ft:n korkeudessa

METAR: HTZA 131300Z 15015KT 9999 FEW024 30/19 Q1015 NOSIG

Aika: 19:18 (16:18 UTC)

Sääennuste

Tämä raportti tehtiin 5 tuntia ja 18 minuuttia sitten, kello 11.00 UTC
Ennuste voimassa 13. päivästä klo 12 UTC - 14. päivään klo 12 UTC
Tuuli 15 kn etelästä/kaakosta
Näkyvyys 10 km tai enemmän
Muutamia pilviä 2200 ft:n korkeudessa
Tulossa
14. päivästä klo 03 UTC - 14. päivään klo 05 UTC
Tuuli 10 kn etelästä/lounaasta

TAF: HTZA 131100Z 1312/1412 15015KT 9999 FEW022 BECMG 1403/1405 21010KT

Säähavainnot ja -ennusteet yli 4000 lentoasemalta (METAR- ja TAF-raportit).

Käytössä olevat sääasemat on merkitty karttaan keltaisilla ja punaisilla pisteillä.

Aseta hiiri pisteen päälle nähdäksesi sääaseman nimen.

Klikkaa sitten nähdäksesi säähavainnot ja -ennusteet.

Kartan vaihtaminen: klikkaa mustalla rastilla varustettuja vihreitä pisteitä, niin voit zoomata sisään; viivalla varustettua vihreää pistettä, niin voit zoomata ulos tai vihreitä nuolia, niin pääset viereisille kartoille.


METAR-TAF: